createdAt,value
2022-12-17T00:04:20.060Z,7.78
2022-12-17T00:08:40.949Z,7.00
2022-12-17T00:13:07.217Z,7.78
2022-12-17T00:17:28.224Z,6.95
2022-12-17T00:21:50.392Z,7.28
2022-12-17T00:26:11.619Z,7.65
2022-12-17T00:30:32.383Z,8.63
2022-12-17T00:34:52.982Z,7.38
2022-12-17T00:52:31.010Z,7.53
2022-12-17T05:52:47.994Z,4.30
2022-12-17T09:40:05.412Z,11.45
2022-12-17T09:44:29.989Z,11.77
2022-12-17T09:48:54.870Z,12.68
2022-12-17T09:53:15.443Z,13.13
2022-12-17T09:57:41.245Z,12.88
2022-12-17T10:02:01.965Z,10.88
2022-12-17T10:06:32.763Z,9.63
2022-12-17T10:10:49.408Z,9.85
2022-12-17T10:15:10.947Z,8.48
2022-12-17T10:19:43.342Z,7.45
2022-12-17T10:24:04.264Z,7.78
2022-12-17T10:28:26.345Z,8.77
2022-12-17T10:32:48.913Z,11.48
2022-12-17T10:37:10.384Z,11.45
2022-12-17T10:41:40.963Z,9.27
2022-12-17T10:46:11.932Z,10.65
2022-12-17T10:50:35.453Z,9.85
2022-12-17T10:54:55.804Z,9.38
2022-12-17T10:59:16.184Z,11.07
2022-12-17T11:03:46.143Z,10.57
2022-12-17T11:12:31.055Z,10.07
2022-12-17T11:16:55.756Z,10.20
2022-12-17T11:21:19.000Z,10.75
2022-12-17T11:25:47.611Z,11.85
2022-12-17T11:30:08.010Z,9.77
2022-12-17T11:34:32.840Z,10.27
2022-12-17T11:38:57.338Z,11.80
2022-12-17T11:43:24.874Z,10.43
2022-12-17T11:47:57.481Z,10.65
2022-12-17T11:52:24.579Z,12.40
2022-12-17T11:56:51.313Z,9.82
2022-12-17T12:01:20.439Z,10.40
2022-12-17T12:05:45.006Z,8.98
2022-12-17T12:10:13.488Z,7.63
2022-12-17T12:14:43.553Z,6.93
2022-12-17T12:19:13.968Z,7.85
2022-12-17T12:23:41.017Z,5.97
2022-12-17T12:28:10.300Z,6.15
2022-12-17T12:32:34.989Z,5.90
2022-12-17T12:36:58.378Z,5.53
2022-12-17T12:41:21.826Z,5.70
2022-12-17T12:50:13.403Z,5.28
2022-12-17T12:54:43.411Z,5.18
2022-12-17T12:59:03.622Z,5.78
2022-12-17T13:03:31.196Z,5.22
2022-12-17T13:07:38.005Z,5.57
2022-12-17T13:11:43.797Z,5.07
2022-12-17T13:15:49.086Z,5.00
2022-12-17T13:20:02.972Z,4.85
2022-12-17T13:24:12.309Z,4.57
2022-12-17T13:28:31.008Z,5.25
2022-12-17T13:32:39.817Z,5.97
2022-12-17T13:36:47.916Z,6.05
2022-12-17T13:41:04.025Z,5.72
2022-12-17T13:45:15.904Z,5.32
2022-12-17T13:49:20.667Z,5.60
2022-12-17T13:53:23.973Z,5.20
2022-12-17T13:57:28.241Z,5.70
2022-12-17T14:01:33.813Z,6.00
2022-12-17T14:05:38.378Z,5.82
2022-12-17T14:09:44.790Z,16.88
2022-12-17T14:13:50.348Z,6.65
2022-12-17T14:17:57.071Z,6.10
2022-12-17T14:22:00.821Z,5.90
2022-12-17T14:26:06.130Z,5.82
2022-12-17T14:30:22.496Z,5.68
2022-12-17T14:34:27.108Z,6.25
2022-12-17T14:38:38.372Z,5.95
2022-12-17T14:42:41.772Z,5.80
2022-12-17T14:46:45.242Z,5.57
2022-12-17T14:50:57.982Z,6.28
2022-12-17T14:55:00.946Z,5.65
2022-12-17T14:59:03.760Z,6.60
2022-12-17T15:03:07.322Z,6.20
2022-12-17T15:07:18.030Z,6.68
2022-12-17T15:11:24.340Z,6.38
2022-12-17T15:15:27.205Z,6.60
2022-12-17T15:19:30.595Z,5.90
2022-12-17T15:23:34.901Z,5.93
2022-12-17T15:27:38.771Z,5.78
2022-12-17T15:31:42.035Z,6.22
2022-12-17T15:35:45.660Z,6.15
2022-12-17T15:39:50.197Z,6.25
2022-12-17T15:43:53.514Z,5.68
2022-12-17T15:47:57.298Z,5.72
2022-12-17T15:52:00.703Z,6.15
2022-12-17T15:56:06.089Z,6.43
2022-12-17T16:00:10.277Z,5.93
2022-12-17T16:04:19.012Z,5.82
2022-12-17T16:08:24.455Z,6.28
2022-12-17T16:12:30.014Z,5.55
2022-12-17T16:16:33.171Z,5.43
2022-12-17T16:20:36.397Z,5.75
2022-12-17T16:24:41.022Z,5.85
2022-12-17T16:28:45.883Z,5.68
2022-12-17T16:32:49.340Z,5.93
2022-12-17T16:36:52.982Z,6.32
2022-12-17T16:40:57.759Z,6.20
2022-12-17T16:45:04.616Z,6.28
2022-12-17T16:49:09.958Z,6.68
2022-12-17T16:53:13.790Z,6.75
2022-12-17T16:57:17.125Z,6.88
2022-12-17T17:01:22.934Z,6.28
2022-12-17T17:05:26.132Z,6.05
2022-12-17T17:09:30.000Z,6.85
2022-12-17T17:13:33.189Z,7.47
2022-12-17T17:17:54.504Z,6.68
2022-12-17T17:21:59.548Z,7.07
2022-12-17T17:26:03.563Z,7.95
2022-12-17T17:30:07.700Z,8.05
2022-12-17T17:34:13.454Z,9.63
2022-12-17T17:38:16.811Z,7.72
2022-12-17T17:42:20.203Z,10.18
2022-12-17T17:46:23.992Z,10.13
2022-12-17T17:50:28.624Z,8.65
2022-12-17T17:54:31.991Z,8.43
2022-12-17T17:58:35.832Z,8.23
2022-12-17T18:02:39.251Z,8.98
2022-12-17T18:07:02.513Z,8.90
2022-12-17T18:11:11.661Z,10.85
2022-12-17T18:15:16.860Z,9.85
2022-12-17T18:19:23.055Z,9.63
2022-12-17T18:23:27.788Z,11.82
2022-12-17T18:27:30.954Z,8.20
2022-12-17T18:31:34.165Z,8.27
2022-12-17T18:35:37.386Z,9.55
2022-12-17T18:39:42.041Z,9.73
2022-12-17T18:43:45.089Z,8.93
2022-12-17T18:47:48.617Z,9.18
2022-12-17T18:51:52.934Z,7.72
2022-12-17T18:55:57.501Z,9.15
2022-12-17T19:00:02.620Z,8.05
2022-12-17T19:04:07.974Z,8.63
2022-12-17T19:08:11.089Z,7.85
2022-12-17T19:12:15.693Z,8.93
2022-12-17T19:16:21.120Z,10.25
2022-12-17T19:20:24.277Z,7.25
2022-12-17T19:24:27.477Z,9.35
2022-12-17T19:28:32.103Z,13.40
2022-12-17T19:32:35.341Z,5.72
2022-12-17T19:36:39.571Z,9.55
2022-12-17T19:40:42.957Z,9.43
2022-12-17T19:44:48.911Z,12.85
2022-12-17T19:52:56.387Z,10.88
2022-12-17T20:05:30.063Z,5.57
2022-12-17T20:56:37.195Z,9.90
2022-12-17T21:44:02.225Z,9.25
